createdAt,value
2023-01-11T00:00:11.156Z,1.67
2023-01-11T00:02:40.938Z,2.17
2023-01-11T00:05:11.951Z,0.87
2023-01-11T00:07:41.559Z,0.60
2023-01-11T00:10:11.823Z,1.67
2023-01-11T00:12:41.309Z,2.10
2023-01-11T00:15:12.002Z,1.77
2023-01-11T00:17:41.923Z,1.20
2023-01-11T00:20:12.407Z,0.93
2023-01-11T00:22:41.848Z,2.53
2023-01-11T00:25:11.486Z,1.20
2023-01-11T00:27:41.302Z,1.63
2023-01-11T00:30:11.729Z,1.87
2023-01-11T00:32:41.240Z,2.37
2023-01-11T00:35:11.181Z,2.03
2023-01-11T00:37:41.654Z,3.20
2023-01-11T00:40:12.008Z,1.00
2023-01-11T00:42:59.365Z,2.60
2023-01-11T00:45:46.902Z,2.40
2023-01-11T00:48:16.484Z,2.53
2023-01-11T00:50:45.909Z,1.93
2023-01-11T00:53:15.414Z,1.60
2023-01-11T00:55:44.971Z,2.93
2023-01-11T00:58:14.460Z,3.47
2023-01-11T01:00:43.914Z,4.97
2023-01-11T01:03:13.461Z,5.90
2023-01-11T01:05:43.000Z,2.70
2023-01-11T01:08:12.446Z,1.33
2023-01-11T01:10:41.935Z,2.43
2023-01-11T01:13:31.001Z,2.07
2023-01-11T01:16:00.564Z,2.93
2023-01-11T01:18:30.019Z,2.03
2023-01-11T01:20:59.478Z,2.60
2023-01-11T01:23:29.300Z,2.10
2023-01-11T01:25:58.750Z,1.47
2023-01-11T01:28:28.196Z,1.83
2023-01-11T01:30:57.851Z,0.97
2023-01-11T01:33:27.295Z,1.73
2023-01-11T01:35:56.759Z,1.17
2023-01-11T01:38:26.238Z,2.03
2023-01-11T01:40:56.912Z,2.00
2023-01-11T01:43:53.093Z,2.10
2023-01-11T01:46:26.096Z,2.20
2023-01-11T01:49:06.212Z,1.63
2023-01-11T01:51:49.318Z,2.77
2023-01-11T01:54:23.504Z,2.43
2023-01-11T01:57:03.447Z,1.17
2023-01-11T01:59:34.499Z,3.03
2023-01-11T02:02:03.943Z,1.77
2023-01-11T02:04:45.790Z,2.10
2023-01-11T02:07:22.515Z,2.13
2023-01-11T02:10:11.106Z,2.70
2023-01-11T02:12:54.556Z,3.57
2023-01-11T02:15:25.414Z,2.70
2023-01-11T02:17:54.886Z,2.07
2023-01-11T02:20:55.660Z,2.27
2023-01-11T02:24:03.759Z,1.43
2023-01-11T02:27:07.704Z,0.80
2023-01-11T02:29:47.770Z,1.93
2023-01-11T02:32:29.803Z,0.77
2023-01-11T02:35:27.511Z,1.17
2023-01-11T02:38:26.588Z,2.80
2023-01-11T02:41:18.849Z,0.50
2023-01-11T02:44:22.663Z,3.33
2023-01-11T02:46:59.131Z,1.90
2023-01-11T02:49:52.844Z,1.10
2023-01-11T02:52:41.714Z,1.07
2023-01-11T02:55:15.877Z,2.27
2023-01-11T02:57:48.974Z,1.80
2023-01-11T03:00:20.121Z,1.60
2023-01-11T03:03:07.695Z,2.23
2023-01-11T03:05:44.527Z,1.07
2023-01-11T03:08:56.327Z,1.53
2023-01-11T03:12:09.348Z,2.60
2023-01-11T03:14:57.478Z,1.73
2023-01-11T03:18:01.827Z,2.13
2023-01-11T03:20:36.219Z,2.57
2023-01-11T03:23:40.698Z,1.43
2023-01-11T03:26:40.168Z,1.03
2023-01-11T03:29:38.207Z,3.40
2023-01-11T03:32:24.150Z,1.63
2023-01-11T03:35:00.660Z,1.57
2023-01-11T03:37:37.643Z,1.30
2023-01-11T03:40:32.954Z,1.80
2023-01-11T03:43:13.687Z,0.77
2023-01-11T03:45:53.693Z,2.20
2023-01-11T03:48:39.322Z,2.43
2023-01-11T03:51:13.446Z,1.40
2023-01-11T03:53:47.819Z,2.40
2023-01-11T03:56:22.212Z,1.97
2023-01-11T03:58:51.776Z,0.77
2023-01-11T04:01:21.281Z,1.03
2023-01-11T04:03:50.728Z,0.87
2023-01-11T04:06:21.162Z,1.30
2023-01-11T04:08:50.809Z,1.60
2023-01-11T04:11:20.284Z,1.13
2023-01-11T04:13:49.737Z,1.13
2023-01-11T04:16:19.279Z,0.77
2023-01-11T04:18:48.803Z,1.23
2023-01-11T04:21:18.253Z,1.33
2023-01-11T04:23:47.718Z,1.10
2023-01-11T04:26:18.899Z,0.90
2023-01-11T04:28:48.399Z,0.73
2023-01-11T04:31:18.058Z,1.00
2023-01-11T04:33:47.515Z,0.93
2023-01-11T04:36:16.995Z,1.77
2023-01-11T04:38:46.484Z,2.20
2023-01-11T04:41:33.921Z,1.63
2023-01-11T04:44:03.965Z,1.80
2023-01-11T04:46:33.389Z,0.70
2023-01-11T04:49:02.894Z,0.50
2023-01-11T04:51:32.346Z,2.00
2023-01-11T04:54:01.776Z,0.60
2023-01-11T04:56:31.375Z,1.00
2023-01-11T04:59:00.804Z,1.00
2023-01-11T05:01:30.362Z,1.07
2023-01-11T05:03:59.884Z,0.40
2023-01-11T05:06:29.394Z,0.43
2023-01-11T05:08:58.853Z,0.40
2023-01-11T05:11:28.269Z,0.67
2023-01-11T05:13:59.337Z,0.83
2023-01-11T05:16:28.912Z,0.90
2023-01-11T05:19:04.717Z,0.50
2023-01-11T05:21:37.339Z,1.43
2023-01-11T05:24:10.192Z,0.40
2023-01-11T05:26:43.247Z,0.50
2023-01-11T05:29:20.397Z,1.17
2023-01-11T05:31:50.337Z,2.33
2023-01-11T05:34:20.157Z,0.77
2023-01-11T05:36:49.582Z,1.10
2023-01-11T05:39:19.035Z,1.33
2023-01-11T05:41:48.480Z,1.80
2023-01-11T05:44:37.574Z,1.43
2023-01-11T05:47:06.989Z,0.67
2023-01-11T05:49:36.435Z,0.80
2023-01-11T05:52:05.981Z,0.40
2023-01-11T05:54:35.419Z,1.00
2023-01-11T05:57:06.474Z,1.23
2023-01-11T05:59:35.929Z,0.70
2023-01-11T06:02:05.398Z,0.80
2023-01-11T06:04:34.847Z,0.40
2023-01-11T06:07:04.479Z,0.97
2023-01-11T06:09:33.904Z,0.50
2023-01-11T06:12:03.389Z,0.90
2023-01-11T06:14:32.835Z,1.07
2023-01-11T06:17:04.198Z,0.67
2023-01-11T06:19:33.617Z,1.23
2023-01-11T06:22:03.203Z,0.47
2023-01-11T06:24:32.687Z,0.60
2023-01-11T06:27:02.108Z,0.47
2023-01-11T06:29:31.542Z,0.57
2023-01-11T06:32:00.978Z,0.60
2023-01-11T06:34:30.427Z,0.50
2023-01-11T06:36:59.844Z,0.77
2023-01-11T06:39:29.304Z,0.40
2023-01-11T06:41:58.709Z,0.53
2023-01-11T06:44:28.198Z,0.50
2023-01-11T06:46:58.209Z,0.70
2023-01-11T06:49:27.641Z,0.50
2023-01-11T06:51:57.058Z,0.70
2023-01-11T06:54:26.508Z,0.80
2023-01-11T06:56:55.910Z,1.23
2023-01-11T06:59:25.342Z,0.47
2023-01-11T07:01:54.838Z,0.50
2023-01-11T07:04:24.290Z,0.30
2023-01-11T07:06:55.488Z,0.77
2023-01-11T07:09:24.990Z,0.83
2023-01-11T07:11:54.407Z,1.13
2023-01-11T07:14:25.018Z,0.60
2023-01-11T07:16:54.425Z,0.97
2023-01-11T07:19:23.867Z,0.90
2023-01-11T07:21:53.296Z,0.77
2023-01-11T07:24:24.315Z,0.73
2023-01-11T07:26:55.618Z,0.70
2023-01-11T07:29:25.117Z,1.27
2023-01-11T07:31:54.529Z,0.33
2023-01-11T07:34:24.111Z,0.40
2023-01-11T07:36:53.532Z,0.53
2023-01-11T07:39:29.134Z,0.33
2023-01-11T07:42:13.263Z,1.17
2023-01-11T07:44:43.364Z,0.43
2023-01-11T07:47:12.797Z,0.30
2023-01-11T07:49:42.211Z,0.60
2023-01-11T07:52:11.629Z,0.43
2023-01-11T07:54:41.065Z,0.40
2023-01-11T07:57:10.485Z,0.80
2023-01-11T07:59:40.337Z,0.73
2023-01-11T08:02:12.202Z,0.50
2023-01-11T08:04:41.637Z,0.50
2023-01-11T08:07:11.065Z,0.43
2023-01-11T08:09:40.487Z,0.40
2023-01-11T08:12:27.873Z,0.60
2023-01-11T08:14:57.305Z,0.40
2023-01-11T08:17:26.726Z,0.47
2023-01-11T08:19:58.797Z,0.70
2023-01-11T08:22:28.290Z,0.70
2023-01-11T08:24:57.717Z,0.50
2023-01-11T08:27:27.162Z,0.60
2023-01-11T08:29:57.046Z,0.67
2023-01-11T08:32:29.948Z,0.50
2023-01-11T08:34:59.370Z,0.27
2023-01-11T08:37:28.801Z,0.80
2023-01-11T08:39:58.310Z,0.50
2023-01-11T08:42:27.955Z,0.50
2023-01-11T08:44:57.393Z,0.70
2023-01-11T08:47:27.086Z,0.60
2023-01-11T08:49:56.507Z,0.50
2023-01-11T08:52:25.933Z,0.40
2023-01-11T08:54:55.376Z,0.83
2023-01-11T08:57:27.605Z,0.97
2023-01-11T08:59:57.464Z,1.73
2023-01-11T09:02:26.963Z,0.60
2023-01-11T09:04:56.393Z,0.53
2023-01-11T09:07:26.063Z,0.90
2023-01-11T09:09:55.496Z,0.83
2023-01-11T09:12:25.300Z,0.83
2023-01-11T09:14:54.725Z,0.40
2023-01-11T09:17:24.170Z,0.37
2023-01-11T09:19:53.587Z,0.87
2023-01-11T09:22:23.014Z,0.70
2023-01-11T09:24:52.449Z,0.50
2023-01-11T09:27:22.369Z,2.07
2023-01-11T09:29:51.784Z,0.50
2023-01-11T09:32:21.221Z,0.30
2023-01-11T09:34:52.285Z,0.47
2023-01-11T09:37:22.789Z,0.50
2023-01-11T09:39:52.641Z,0.73
2023-01-11T09:42:31.021Z,0.73
2023-01-11T09:45:24.742Z,1.03
2023-01-11T09:48:21.314Z,0.50
2023-01-11T09:50:51.187Z,0.30
2023-01-11T09:53:29.787Z,0.30
2023-01-11T09:56:03.818Z,0.50
2023-01-11T09:59:00.050Z,0.43
2023-01-11T10:01:45.717Z,0.80
2023-01-11T10:04:48.586Z,0.77
2023-01-11T10:07:43.683Z,0.40
2023-01-11T10:18:26.562Z,0.53
2023-01-11T10:19:33.399Z,0.20
2023-01-11T10:22:04.582Z,0.40
2023-01-11T10:24:42.441Z,0.60
2023-01-11T10:27:16.749Z,0.50
2023-01-11T10:29:55.833Z,0.50
2023-01-11T10:32:48.364Z,0.60
2023-01-11T10:35:32.811Z,0.60
2023-01-11T10:38:24.457Z,0.20
2023-01-11T10:41:06.109Z,0.63
2023-01-11T10:43:42.777Z,0.37
2023-01-11T10:46:22.608Z,0.30
2023-01-11T10:48:57.203Z,0.40
2023-01-11T10:51:37.564Z,0.50
2023-01-11T10:54:16.128Z,0.40
2023-01-11T10:57:28.021Z,0.30
2023-01-11T11:00:20.185Z,0.50
2023-01-11T11:03:15.008Z,0.40
2023-01-11T11:06:09.202Z,0.43
2023-01-11T11:08:54.635Z,0.43
2023-01-11T11:11:31.825Z,0.40
2023-01-11T11:14:10.987Z,0.20
2023-01-11T11:17:18.742Z,0.30
2023-01-11T11:19:48.228Z,0.30
2023-01-11T11:22:17.661Z,0.30
2023-01-11T11:24:57.178Z,0.37
2023-01-11T11:27:33.923Z,0.20
2023-01-11T11:30:03.619Z,1.07
2023-01-11T11:32:37.268Z,0.53
2023-01-11T11:35:08.931Z,0.47
2023-01-11T11:37:45.612Z,0.30
2023-01-11T11:40:36.674Z,0.53
2023-01-11T11:43:28.436Z,0.57
2023-01-11T11:46:04.646Z,0.20
2023-01-11T11:48:36.152Z,0.40
2023-01-11T11:51:10.443Z,0.43
2023-01-11T11:53:56.171Z,0.10
2023-01-11T11:56:35.544Z,0.20
2023-01-11T11:59:13.212Z,0.20
2023-01-11T12:01:47.846Z,0.20
2023-01-11T12:04:39.502Z,0.23
2023-01-11T12:07:19.131Z,0.50
2023-01-11T12:10:08.272Z,0.30
2023-01-11T12:12:56.744Z,0.40
2023-01-11T12:15:32.785Z,0.47
2023-01-11T12:18:33.445Z,0.40
2023-01-11T12:21:27.202Z,0.50
2023-01-11T12:24:19.883Z,0.30
2023-01-11T12:27:13.518Z,0.60
2023-01-11T12:30:26.404Z,0.50
2023-01-11T12:33:22.078Z,0.23
2023-01-11T12:35:58.746Z,0.30
2023-01-11T12:38:41.596Z,0.30
2023-01-11T12:41:50.420Z,0.10
2023-01-11T12:44:42.729Z,0.30
2023-01-11T12:47:45.356Z,0.30
2023-01-11T12:50:43.401Z,0.40
2023-01-11T12:53:29.337Z,0.20
2023-01-11T12:56:41.123Z,0.23
2023-01-11T12:59:23.717Z,0.30
2023-01-11T13:02:18.292Z,0.10
2023-01-11T13:05:15.610Z,0.20
2023-01-11T13:08:04.054Z,0.40
2023-01-11T13:10:49.063Z,0.90
2023-01-11T13:13:40.929Z,0.30
2023-01-11T13:16:17.774Z,0.20
2023-01-11T13:19:03.054Z,0.20
2023-01-11T13:21:47.693Z,0.47
2023-01-11T13:24:23.388Z,0.27
2023-01-11T13:26:56.972Z,0.30
2023-01-11T13:29:40.033Z,0.30
2023-01-11T13:32:22.587Z,0.33
2023-01-11T13:35:22.207Z,0.20
2023-01-11T13:37:56.242Z,0.23
2023-01-11T13:40:42.113Z,0.20
2023-01-11T13:43:22.099Z,0.10
2023-01-11T13:46:06.075Z,0.27
2023-01-11T13:48:43.100Z,0.30
2023-01-11T13:51:17.229Z,0.10
2023-01-11T13:54:11.562Z,0.40
2023-01-11T13:56:45.753Z,0.20
2023-01-11T13:59:37.751Z,0.50
2023-01-11T14:02:29.402Z,0.17
2023-01-11T14:05:21.653Z,0.23
2023-01-11T14:08:13.712Z,0.20
2023-01-11T14:11:07.155Z,0.47
2023-01-11T14:14:17.430Z,0.30
2023-01-11T14:17:18.265Z,0.30
2023-01-11T14:20:12.050Z,0.20
2023-01-11T14:23:15.728Z,0.33
2023-01-11T14:26:18.181Z,0.50
2023-01-11T14:29:12.675Z,0.50
2023-01-11T14:32:09.745Z,0.50
2023-01-11T14:34:52.885Z,0.50
2023-01-11T14:37:32.667Z,0.27
2023-01-11T14:40:20.867Z,0.30
2023-01-11T14:43:26.809Z,0.53
2023-01-11T14:46:32.934Z,0.20
2023-01-11T14:49:21.785Z,0.30
2023-01-11T14:52:12.394Z,0.60
2023-01-11T14:54:46.293Z,0.60
2023-01-11T14:57:57.526Z,0.63
2023-01-11T15:00:31.563Z,0.50
2023-01-11T15:03:08.697Z,0.70
2023-01-11T15:05:43.059Z,0.50
2023-01-11T15:08:25.867Z,0.60
2023-01-11T15:11:32.674Z,0.63
2023-01-11T15:14:21.600Z,0.50
2023-01-11T15:17:13.291Z,0.40
2023-01-11T15:19:45.825Z,0.40
2023-01-11T15:22:34.297Z,0.30
2023-01-11T15:25:26.240Z,0.30
2023-01-11T15:27:56.590Z,0.30
2023-01-11T15:30:39.349Z,0.30
2023-01-11T15:33:25.586Z,0.30
2023-01-11T15:36:02.936Z,0.50
2023-01-11T15:39:03.871Z,0.20
2023-01-11T15:42:04.541Z,0.10
2023-01-11T15:45:05.651Z,0.27
2023-01-11T15:48:10.788Z,0.30
2023-01-11T15:50:53.569Z,0.20
2023-01-11T15:53:48.985Z,0.30
2023-01-11T15:56:54.361Z,0.40
2023-01-11T16:00:05.961Z,0.30
2023-01-11T16:03:11.404Z,0.60
2023-01-11T16:05:56.885Z,0.50
2023-01-11T16:08:39.792Z,0.40
2023-01-11T16:11:19.492Z,0.40
2023-01-11T16:14:08.711Z,0.20
2023-01-11T16:16:44.564Z,0.30
2023-01-11T16:19:23.340Z,0.20
2023-01-11T16:21:58.222Z,0.17
2023-01-11T16:24:31.843Z,0.30
2023-01-11T16:27:07.353Z,0.50
2023-01-11T16:29:39.332Z,0.40
2023-01-11T16:32:30.013Z,0.40
2023-01-11T16:35:01.416Z,0.47
2023-01-11T16:37:46.640Z,0.30
2023-01-11T16:40:21.057Z,0.30
2023-01-11T16:43:10.024Z,0.30
2023-01-11T16:45:46.548Z,0.50
2023-01-11T16:48:19.197Z,0.30
2023-01-11T16:51:04.408Z,0.30
2023-01-11T16:53:40.416Z,0.50
2023-01-11T16:56:23.668Z,0.30
2023-01-11T16:59:10.066Z,0.20
2023-01-11T17:02:03.119Z,0.30
2023-01-11T17:04:39.880Z,0.30
2023-01-11T17:07:28.633Z,0.30
2023-01-11T17:10:24.085Z,0.40
2023-01-11T17:13:53.703Z,0.53
2023-01-11T17:16:28.098Z,0.30
2023-01-11T17:19:00.701Z,0.30
2023-01-11T17:21:31.716Z,0.40
2023-01-11T17:24:05.202Z,0.63
2023-01-11T17:26:45.204Z,0.40
2023-01-11T17:29:19.290Z,0.40
2023-01-11T17:31:48.876Z,0.50
2023-01-11T17:34:34.829Z,0.53
2023-01-11T17:37:12.145Z,0.40
2023-01-11T17:39:47.907Z,0.70
2023-01-11T17:42:36.663Z,0.53
2023-01-11T17:45:18.579Z,0.47
2023-01-11T17:47:54.656Z,0.30
2023-01-11T17:50:37.708Z,0.30
2023-01-11T17:53:20.613Z,0.37
2023-01-11T17:55:56.326Z,0.50
2023-01-11T17:58:29.332Z,0.57
2023-01-11T18:01:15.638Z,0.30
2023-01-11T18:03:58.054Z,0.40
2023-01-11T18:06:41.111Z,0.57
2023-01-11T18:09:30.120Z,0.40
2023-01-11T18:12:19.127Z,0.40
2023-01-11T18:15:01.782Z,0.40
2023-01-11T18:17:40.477Z,0.40
2023-01-11T18:20:23.223Z,0.53
2023-01-11T18:23:14.883Z,0.40
2023-01-11T18:25:45.979Z,0.93
2023-01-11T18:28:30.586Z,0.77
2023-01-11T18:31:02.295Z,0.50
2023-01-11T18:33:35.069Z,0.50
2023-01-11T18:36:07.442Z,0.50
2023-01-11T18:38:38.233Z,0.53
2023-01-11T18:41:28.020Z,0.97
2023-01-11T18:43:57.779Z,1.50
2023-01-11T18:46:27.302Z,1.97
2023-01-11T18:48:56.698Z,1.40
2023-01-11T18:51:36.717Z,0.93
2023-01-11T18:54:06.470Z,1.40
2023-01-11T18:56:35.879Z,1.20
2023-01-11T18:59:05.312Z,1.23
2023-01-11T19:01:46.884Z,0.83
2023-01-11T19:04:07.680Z,0.63
2023-01-11T19:06:37.083Z,1.10
2023-01-11T19:09:06.788Z,1.30
2023-01-11T19:11:36.203Z,1.10
2023-01-11T19:14:05.633Z,1.07
2023-01-11T19:16:35.928Z,0.80
2023-01-11T19:19:05.748Z,1.07
2023-01-11T19:21:35.238Z,1.43
2023-01-11T19:24:05.085Z,0.77
2023-01-11T19:26:34.525Z,0.60
2023-01-11T19:29:03.942Z,0.80
2023-01-11T19:31:33.443Z,0.97
2023-01-11T19:34:02.865Z,0.97
2023-01-11T19:36:32.297Z,1.70
2023-01-11T19:39:01.728Z,0.87
2023-01-11T19:41:32.809Z,1.53
2023-01-11T19:44:02.225Z,1.00
2023-01-11T19:46:32.415Z,0.93
2023-01-11T19:49:02.225Z,0.70
2023-01-11T19:51:31.662Z,0.63
2023-01-11T19:54:01.106Z,0.67
2023-01-11T19:56:30.529Z,1.00
2023-01-11T19:59:00.321Z,0.70
2023-01-11T20:01:29.784Z,1.23
2023-01-11T20:04:00.628Z,1.00
2023-01-11T20:06:30.061Z,0.57
2023-01-11T20:08:59.950Z,1.00
2023-01-11T20:11:29.380Z,1.17
2023-01-11T20:13:58.797Z,0.60
2023-01-11T20:16:28.235Z,0.60
2023-01-11T20:18:58.934Z,2.17
2023-01-11T20:21:32.527Z,1.37
2023-01-11T20:24:03.398Z,1.53
2023-01-11T20:26:34.414Z,1.00
2023-01-11T20:29:05.464Z,0.83
2023-01-11T20:31:36.111Z,0.60
2023-01-11T20:34:09.769Z,0.73
2023-01-11T20:36:40.623Z,1.07
2023-01-11T20:39:11.163Z,1.07
2023-01-11T20:41:50.039Z,1.13
2023-01-11T20:44:29.583Z,0.70
2023-01-11T20:47:00.275Z,0.80
2023-01-11T20:49:31.054Z,0.97
2023-01-11T20:52:00.751Z,0.70
2023-01-11T20:54:30.234Z,0.73
2023-01-11T20:57:01.316Z,0.30
2023-01-11T20:59:32.266Z,0.37
2023-01-11T21:02:01.746Z,0.50
2023-01-11T21:04:31.177Z,0.40
2023-01-11T21:07:00.623Z,0.83
2023-01-11T21:09:30.350Z,0.97
2023-01-11T21:11:59.788Z,1.17
2023-01-11T21:14:30.375Z,0.80
2023-01-11T21:17:00.057Z,0.57
2023-01-11T21:19:29.476Z,0.80
2023-01-11T21:21:59.114Z,1.40
2023-01-11T21:24:28.547Z,0.80
2023-01-11T21:26:58.249Z,1.40
2023-01-11T21:29:27.657Z,0.60
2023-01-11T21:31:57.101Z,0.60
2023-01-11T21:34:26.529Z,0.43
2023-01-11T21:36:55.965Z,0.53
2023-01-11T21:39:26.585Z,0.60
2023-01-11T21:41:56.131Z,0.70
2023-01-11T21:44:35.684Z,0.70
2023-01-11T21:47:07.541Z,0.40
2023-01-11T21:49:36.953Z,0.70
2023-01-11T21:52:06.455Z,0.47
2023-01-11T21:54:35.932Z,0.70
2023-01-11T21:57:05.349Z,0.93
2023-01-11T21:59:35.767Z,0.50
2023-01-11T22:02:05.189Z,1.07
2023-01-11T22:04:34.690Z,0.47
2023-01-11T22:07:05.079Z,0.60
2023-01-11T22:09:34.684Z,0.70
2023-01-11T22:12:04.110Z,0.50
2023-01-11T22:14:35.008Z,0.73
2023-01-11T22:17:04.673Z,0.60
2023-01-11T22:19:34.147Z,1.40
2023-01-11T22:22:03.585Z,0.90
2023-01-11T22:24:33.008Z,0.40
2023-01-11T22:27:02.532Z,0.60
2023-01-11T22:29:32.478Z,0.90
2023-01-11T22:32:03.516Z,0.60
2023-01-11T22:34:34.212Z,0.50
2023-01-11T22:37:04.077Z,0.57
2023-01-11T22:39:33.569Z,0.60
2023-01-11T22:42:03.001Z,0.60
2023-01-11T22:44:32.498Z,0.60
2023-01-11T22:47:02.073Z,0.83
2023-01-11T22:49:32.068Z,0.60
2023-01-11T22:52:01.501Z,0.40
2023-01-11T22:54:30.919Z,0.40
2023-01-11T22:57:00.377Z,0.53
2023-01-11T22:59:29.762Z,0.73
2023-01-11T23:01:59.201Z,1.53
2023-01-11T23:04:28.634Z,1.43
2023-01-11T23:06:58.046Z,0.93
2023-01-11T23:09:27.550Z,1.00
2023-01-11T23:12:14.868Z,0.93
2023-01-11T23:14:44.292Z,0.60
2023-01-11T23:17:13.722Z,1.37
2023-01-11T23:19:45.151Z,1.17
2023-01-11T23:22:16.889Z,0.97
2023-01-11T23:24:46.313Z,0.97
2023-01-11T23:27:15.763Z,0.70
2023-01-11T23:29:45.165Z,1.30
2023-01-11T23:32:14.702Z,0.67
2023-01-11T23:34:44.123Z,0.70
2023-01-11T23:37:13.646Z,1.53
2023-01-11T23:39:43.075Z,1.77
2023-01-11T23:42:28.311Z,1.60
2023-01-11T23:44:58.661Z,1.30
2023-01-11T23:47:29.876Z,1.00
2023-01-11T23:50:01.549Z,1.87
2023-01-11T23:52:33.461Z,0.80
2023-01-11T23:55:02.873Z,1.07
2023-01-11T23:57:32.322Z,1.30
